Time;durP1;ratioP1;P1;durP2;ratioP2;P2;SDS_P1;SDS_P2;PMS_P1;PMS_P2;Temp;Humidity;BMP_temperature;BMP_pressure;BME280_temperature;BME280_humidity;BME280_pressure;Samples;Min_cycle;Max_cycle;Signal;HPM_P1;HPM_P2
2021/01/04 00:02:28;;;;;;;15.03;7.90;;;;;;;;;;4408125;32;20169;-75
2021/01/04 00:05:12;;;;;;;16.03;8.80;;;;;;;;;;4408049;32;20188;-75
2021/01/04 00:07:48;;;;;;;13.90;8.37;;;;;;;;;;4407653;32;20168;-76
2021/01/04 00:10:51;;;;;;;17.23;8.37;;;;;;;;;;4407677;32;20138;-76
2021/01/04 00:13:24;;;;;;;13.53;7.33;;;;;;;;;;4333771;33;20170;-76
2021/01/04 00:15:55;;;;;;;16.03;8.00;;;;;;;;;;4400462;32;20212;-76
2021/01/04 00:18:35;;;;;;;15.03;7.97;;;;;;;;;;4423531;32;20535;-76
2021/01/04 00:21:11;;;;;;;14.40;8.17;;;;;;;;;;4423362;32;20137;-76
2021/01/04 00:23:58;;;;;;;16.57;8.00;;;;;;;;;;4423104;32;20137;-76
2021/01/04 00:26:29;;;;;;;14.67;7.83;;;;;;;;;;4422717;32;20546;-76
2021/01/04 00:28:55;;;;;;;15.20;7.70;;;;;;;;;;4423300;32;20192;-76
2021/01/04 00:31:33;;;;;;;15.40;8.13;;;;;;;;;;4423928;32;20513;-76
2021/01/04 00:34:15;;;;;;;16.77;8.10;;;;;;;;;;4424120;32;20156;-76
2021/01/04 00:37:07;;;;;;;15.77;8.07;;;;;;;;;;4423906;32;20172;-76
2021/01/04 00:39:53;;;;;;;13.77;7.73;;;;;;;;;;4419607;32;20173;-76
2021/01/04 00:42:27;;;;;;;14.13;7.80;;;;;;;;;;4390986;32;20158;-77
2021/01/04 00:45:11;;;;;;;14.27;7.70;;;;;;;;;;4422871;32;20149;-76
2021/01/04 00:47:48;;;;;;;14.97;8.33;;;;;;;;;;4422855;32;20154;-76
2021/01/04 00:50:26;;;;;;;13.50;7.87;;;;;;;;;;4422736;32;20145;-76
2021/01/04 00:53:00;;;;;;;13.73;7.70;;;;;;;;;;4422424;32;20133;-76
2021/01/04 00:55:30;;;;;;;14.23;7.63;;;;;;;;;;4422541;32;20134;-76
2021/01/04 00:58:20;;;;;;;15.13;8.00;;;;;;;;;;4422005;32;20184;-76
2021/01/04 01:00:50;;;;;;;14.40;7.67;;;;;;;;;;4422713;32;20165;-76
2021/01/04 01:03:40;;;;;;;14.03;7.67;;;;;;;;;;4421861;32;20164;-76
2021/01/04 01:06:40;;;;;;;16.40;8.40;;;;;;;;;;4408681;32;20153;-76
2021/01/04 01:09:19;;;;;;;12.53;7.53;;;;;;;;;;4422237;32;20188;-76
2021/01/04 01:12:05;;;;;;;12.63;7.63;;;;;;;;;;4406646;32;20153;-75
2021/01/04 01:14:31;;;;;;;14.53;7.90;;;;;;;;;;4407000;32;20199;-76
2021/01/04 01:17:03;;;;;;;12.67;7.00;;;;;;;;;;4421819;32;20142;-76
2021/01/04 01:19:33;;;;;;;14.67;7.73;;;;;;;;;;4422171;32;20403;-76
2021/01/04 01:22:08;;;;;;;17.03;8.57;;;;;;;;;;4408126;32;20184;-75
2021/01/04 01:24:36;;;;;;;15.87;8.17;;;;;;;;;;4407894;32;20148;-75
2021/01/04 01:27:02;;;;;;;15.13;7.63;;;;;;;;;;4422397;32;20126;-75
2021/01/04 01:29:48;;;;;;;12.73;7.77;;;;;;;;;;4421885;32;20138;-75
2021/01/04 01:32:21;;;;;;;15.07;8.03;;;;;;;;;;4377053;32;20218;-75
2021/01/04 01:34:49;;;;;;;11.47;7.13;;;;;;;;;;4422148;32;20153;-75
2021/01/04 01:37:55;;;;;;;13.67;7.63;;;;;;;;;;4422232;32;20524;-75
2021/01/04 01:40:23;;;;;;;12.43;7.40;;;;;;;;;;4422148;32;20156;-75
2021/01/04 01:43:01;;;;;;;11.70;7.27;;;;;;;;;;4422474;32;20187;-76
2021/01/04 01:45:29;;;;;;;15.07;8.43;;;;;;;;;;4421548;32;20164;-75
2021/01/04 01:48:05;;;;;;;13.47;8.20;;;;;;;;;;4407642;32;20170;-75
2021/01/04 01:50:48;;;;;;;14.20;8.00;;;;;;;;;;4421293;32;20130;-75
2021/01/04 01:53:30;;;;;;;14.30;7.70;;;;;;;;;;4421344;32;20154;-75
2021/01/04 01:56:15;;;;;;;15.23;7.93;;;;;;;;;;4407412;32;20207;-75
2021/01/04 01:58:59;;;;;;;13.70;7.57;;;;;;;;;;4421115;32;20149;-75
2021/01/04 02:01:43;;;;;;;11.53;7.07;;;;;;;;;;4421469;32;20126;-75
2021/01/04 02:04:26;;;;;;;13.07;7.37;;;;;;;;;;4421980;32;20125;-75
2021/01/04 02:07:07;;;;;;;12.23;7.87;;;;;;;;;;4407468;32;20169;-75
2021/01/04 02:09:40;;;;;;;16.10;7.60;;;;;;;;;;4421435;32;20129;-75
2021/01/04 02:12:09;;;;;;;15.23;8.43;;;;;;;;;;4421785;32;20123;-75
2021/01/04 02:15:00;;;;;;;14.10;7.63;;;;;;;;;;4421307;32;20130;-75
2021/01/04 02:17:36;;;;;;;17.30;8.60;;;;;;;;;;4421427;32;20168;-75
2021/01/04 02:20:27;;;;;;;14.40;8.07;;;;;;;;;;4421288;32;20160;-75
2021/01/04 02:23:10;;;;;;;14.43;7.87;;;;;;;;;;4420886;32;20142;-75
2021/01/04 02:25:38;;;;;;;14.87;7.97;;;;;;;;;;4421549;32;20150;-75
2021/01/04 02:28:10;;;;;;;15.03;8.20;;;;;;;;;;4420967;32;20137;-75
2021/01/04 02:30:35;;;;;;;44.83;28.27;;;;;;;;;;4420638;32;20137;-75
2021/01/04 02:33:06;;;;;;;16.83;10.33;;;;;;;;;;4420699;32;20243;-75
2021/01/04 02:35:35;;;;;;;14.33;8.03;;;;;;;;;;4421476;32;20231;-75
2021/01/04 02:38:04;;;;;;;14.33;7.93;;;;;;;;;;4420486;32;20133;-74
2021/01/04 02:40:30;;;;;;;15.87;8.17;;;;;;;;;;4420924;32;20129;-74
2021/01/04 02:42:55;;;;;;;16.37;8.43;;;;;;;;;;4420936;32;20156;-74
2021/01/04 02:45:25;;;;;;;14.17;7.93;;;;;;;;;;4420496;32;20477;-74
2021/01/04 02:47:56;;;;;;;14.93;8.27;;;;;;;;;;4420926;32;20208;-74
2021/01/04 02:50:36;;;;;;;17.23;8.87;;;;;;;;;;4420826;32;20145;-75
2021/01/04 02:53:34;;;;;;;17.20;8.53;;;;;;;;;;4420471;32;20185;-74
2021/01/04 02:56:30;;;;;;;15.87;8.63;;;;;;;;;;4417903;32;20317;-74
2021/01/04 02:59:00;;;;;;;17.03;8.83;;;;;;;;;;4416551;32;20160;-75
2021/01/04 03:01:27;;;;;;;16.10;8.60;;;;;;;;;;4417930;32;20158;-75
2021/01/04 03:03:52;;;;;;;17.33;8.67;;;;;;;;;;4420763;32;20551;-74
2021/01/04 03:06:22;;;;;;;14.27;8.13;;;;;;;;;;4406527;32;20192;-74
2021/01/04 03:08:50;;;;;;;14.17;8.17;;;;;;;;;;4407071;32;20169;-74
2021/01/04 03:11:16;;;;;;;14.60;9.00;;;;;;;;;;4420864;32;20192;-75
2021/01/04 03:13:53;;;;;;;13.90;7.90;;;;;;;;;;4406349;32;20671;-74
2021/01/04 03:16:42;;;;;;;16.10;9.03;;;;;;;;;;4420731;32;20579;-74
2021/01/04 03:19:11;;;;;;;14.63;8.10;;;;;;;;;;4420706;32;20133;-75
2021/01/04 03:21:42;;;;;;;16.97;8.83;;;;;;;;;;4420062;32;20137;-75
2021/01/04 03:24:08;;;;;;;16.60;9.20;;;;;;;;;;4420552;32;20532;-75
2021/01/04 03:26:56;;;;;;;15.97;8.87;;;;;;;;;;4419805;32;20258;-75
2021/01/04 03:29:21;;;;;;;15.30;8.20;;;;;;;;;;4420489;32;20145;-74
2021/01/04 03:31:46;;;;;;;14.23;8.57;;;;;;;;;;4421162;32;20207;-75
2021/01/04 03:34:11;;;;;;;15.23;8.87;;;;;;;;;;4421766;32;20191;-75
2021/01/04 03:36:37;;;;;;;15.77;9.37;;;;;;;;;;4424060;32;20138;-75
2021/01/04 03:39:03;;;;;;;17.60;9.17;;;;;;;;;;4423334;32;20524;-75
2021/01/04 03:41:29;;;;;;;18.73;9.53;;;;;;;;;;4423899;32;20403;-75
2021/01/04 03:43:55;;;;;;;16.03;9.33;;;;;;;;;;4423189;32;20138;-75
2021/01/04 03:46:20;;;;;;;15.63;9.10;;;;;;;;;;4409841;32;20647;-74
2021/01/04 03:48:51;;;;;;;15.37;9.03;;;;;;;;;;4423075;32;20145;-75
2021/01/04 03:51:18;;;;;;;15.80;8.90;;;;;;;;;;4423084;32;20141;-75
2021/01/04 03:53:44;;;;;;;17.27;9.10;;;;;;;;;;4423136;32;20590;-75
2021/01/04 03:56:16;;;;;;;16.10;9.03;;;;;;;;;;4423009;32;20250;-75
2021/01/04 03:58:41;;;;;;;16.50;9.30;;;;;;;;;;4423620;32;20134;-74
2021/01/04 04:01:06;;;;;;;15.27;9.03;;;;;;;;;;4422821;32;20172;-75
2021/01/04 04:03:32;;;;;;;14.33;8.57;;;;;;;;;;4422940;32;20425;-75
2021/01/04 04:05:57;;;;;;;16.33;8.50;;;;;;;;;;4423214;32;20161;-75
2021/01/04 04:08:22;;;;;;;16.57;9.03;;;;;;;;;;4422963;32;20217;-74
2021/01/04 04:10:53;;;;;;;14.63;8.57;;;;;;;;;;4408974;32;20188;-74
2021/01/04 04:13:18;;;;;;;18.93;9.03;;;;;;;;;;4409765;32;20210;-75
2021/01/04 04:15:46;;;;;;;16.93;9.30;;;;;;;;;;4422872;32;20149;-75
2021/01/04 04:18:14;;;;;;;15.47;8.93;;;;;;;;;;4424115;32;20137;-74
2021/01/04 04:20:41;;;;;;;14.60;8.80;;;;;;;;;;4408679;32;20192;-75
2021/01/04 04:23:07;;;;;;;14.30;8.43;;;;;;;;;;4422872;32;20131;-74
2021/01/04 04:25:35;;;;;;;13.97;8.07;;;;;;;;;;4423093;32;20585;-74
2021/01/04 04:28:06;;;;;;;14.80;8.40;;;;;;;;;;4407879;32;20188;-75
2021/01/04 04:30:31;;;;;;;13.90;8.33;;;;;;;;;;4422953;32;20194;-75
2021/01/04 04:32:58;;;;;;;14.30;8.43;;;;;;;;;;4423399;32;20454;-75
2021/01/04 04:35:27;;;;;;;15.57;8.90;;;;;;;;;;4423155;32;20141;-74
2021/01/04 04:37:52;;;;;;;15.93;9.10;;;;;;;;;;4422339;32;20134;-75
2021/01/04 04:40:28;;;;;;;13.33;7.93;;;;;;;;;;4414039;32;20167;-75
2021/01/04 04:42:58;;;;;;;12.77;8.27;;;;;;;;;;4407773;32;20216;-75
2021/01/04 04:45:23;;;;;;;12.73;7.70;;;;;;;;;;4407182;32;20179;-75
2021/01/04 04:48:02;;;;;;;11.77;7.50;;;;;;;;;;4407296;32;20181;-75
2021/01/04 04:50:56;;;;;;;13.07;7.63;;;;;;;;;;4408153;32;20164;-74
2021/01/04 04:53:30;;;;;;;14.73;7.40;;;;;;;;;;4407450;32;20385;-75
2021/01/04 04:56:14;;;;;;;12.30;7.10;;;;;;;;;;4406915;32;20153;-74
2021/01/04 04:58:40;;;;;;;14.33;8.17;;;;;;;;;;4407230;32;20200;-75
2021/01/04 05:01:12;;;;;;;13.33;7.63;;;;;;;;;;4393150;32;20165;-74
2021/01/04 05:03:59;;;;;;;12.00;7.30;;;;;;;;;;4407057;32;20146;-75
2021/01/04 05:06:27;;;;;;;12.23;6.93;;;;;;;;;;4406742;32;20142;-75
2021/01/04 05:08:55;;;;;;;10.97;6.77;;;;;;;;;;4407178;32;20176;-75
2021/01/04 05:11:21;;;;;;;14.13;6.87;;;;;;;;;;4406937;32;20185;-74
2021/01/04 05:13:49;;;;;;;13.00;7.50;;;;;;;;;;4393518;32;20211;-74
2021/01/04 05:16:50;;;;;;;12.00;7.10;;;;;;;;;;4406706;32;20211;-75
2021/01/04 05:19:42;;;;;;;15.30;7.60;;;;;;;;;;4393824;32;20192;-74
2021/01/04 05:22:20;;;;;;;16.00;7.10;;;;;;;;;;4403508;32;20173;-75
2021/01/04 05:25:01;;;;;;;12.33;6.60;;;;;;;;;;4406462;32;20195;-75
2021/01/04 05:27:26;;;;;;;14.33;7.10;;;;;;;;;;4407401;32;20145;-75
2021/01/04 05:30:02;;;;;;;12.03;6.83;;;;;;;;;;4400842;32;20644;-74
2021/01/04 05:32:42;;;;;;;13.07;7.23;;;;;;;;;;4421089;32;20197;-74
2021/01/04 05:35:13;;;;;;;12.80;7.40;;;;;;;;;;4422756;32;20123;-75
2021/01/04 05:37:59;;;;;;;12.87;7.27;;;;;;;;;;4422238;32;20152;-75
2021/01/04 05:40:36;;;;;;;13.80;7.33;;;;;;;;;;4421596;32;20171;-75
2021/01/04 05:43:11;;;;;;;16.20;7.60;;;;;;;;;;4421775;32;20137;-75
2021/01/04 05:45:36;;;;;;;13.83;7.40;;;;;;;;;;4421822;32;20148;-74
2021/01/04 05:48:05;;;;;;;15.50;7.13;;;;;;;;;;4421270;32;20492;-75
2021/01/04 05:50:39;;;;;;;13.40;7.03;;;;;;;;;;4421961;32;20181;-75
2021/01/04 05:53:10;;;;;;;13.60;7.33;;;;;;;;;;4422503;32;20129;-75
2021/01/04 05:55:36;;;;;;;13.63;8.20;;;;;;;;;;4421272;32;20575;-75
2021/01/04 05:58:12;;;;;;;14.87;7.33;;;;;;;;;;4420871;32;20142;-75
2021/01/04 06:00:38;;;;;;;13.63;7.67;;;;;;;;;;4406533;32;20138;-75
2021/01/04 06:03:07;;;;;;;16.63;7.90;;;;;;;;;;4392184;32;20242;-75
2021/01/04 06:05:32;;;;;;;12.93;7.67;;;;;;;;;;4405849;32;20154;-75
2021/01/04 06:07:57;;;;;;;14.33;7.43;;;;;;;;;;4402247;32;20192;-75
2021/01/04 06:10:24;;;;;;;17.53;8.17;;;;;;;;;;4404460;32;20174;-75
2021/01/04 06:12:51;;;;;;;15.23;7.60;;;;;;;;;;4406460;32;20177;-75
2021/01/04 06:15:25;;;;;;;15.70;8.13;;;;;;;;;;4406307;32;20472;-75
2021/01/04 06:17:58;;;;;;;14.07;8.13;;;;;;;;;;4406124;32;20251;-75
2021/01/04 06:20:44;;;;;;;14.23;7.90;;;;;;;;;;4406188;32;20187;-75
2021/01/04 06:23:10;;;;;;;14.53;7.87;;;;;;;;;;4406414;32;20200;-75
2021/01/04 06:25:36;;;;;;;15.17;7.90;;;;;;;;;;4406438;32;20154;-75
2021/01/04 06:28:05;;;;;;;14.67;7.60;;;;;;;;;;4406324;32;20609;-75
2021/01/04 06:30:35;;;;;;;13.90;8.10;;;;;;;;;;4405465;32;20161;-75
2021/01/04 06:33:16;;;;;;;18.47;8.10;;;;;;;;;;4405659;32;20178;-75
2021/01/04 06:35:41;;;;;;;15.70;7.73;;;;;;;;;;4391701;32;20166;-75
2021/01/04 06:38:09;;;;;;;17.30;8.77;;;;;;;;;;4402203;32;20239;-74
2021/01/04 06:40:36;;;;;;;15.03;8.10;;;;;;;;;;4405604;32;20163;-76
2021/01/04 06:43:13;;;;;;;15.70;8.17;;;;;;;;;;4405682;32;20574;-76
2021/01/04 06:45:41;;;;;;;15.93;8.43;;;;;;;;;;4405294;32;20147;-77
2021/01/04 06:48:09;;;;;;;15.73;8.30;;;;;;;;;;4405148;32;20517;-76
2021/01/04 06:50:45;;;;;;;17.70;8.20;;;;;;;;;;4406110;32;20209;-76
2021/01/04 06:53:17;;;;;;;15.47;8.23;;;;;;;;;;4391384;32;20601;-76
2021/01/04 06:56:06;;;;;;;15.10;8.00;;;;;;;;;;4405086;32;20212;-76
2021/01/04 06:58:41;;;;;;;15.93;8.50;;;;;;;;;;4392112;32;20191;-76
2021/01/04 07:01:31;;;;;;;15.33;8.33;;;;;;;;;;4405234;32;20164;-77
2021/01/04 07:04:03;;;;;;;14.03;7.83;;;;;;;;;;4405806;32;20150;-76
2021/01/04 07:06:47;;;;;;;16.53;7.77;;;;;;;;;;4405960;32;20137;-76
2021/01/04 07:09:29;;;;;;;15.33;8.40;;;;;;;;;;4405333;32;20550;-76
2021/01/04 07:11:56;;;;;;;12.43;7.80;;;;;;;;;;4405545;32;20130;-76
2021/01/04 07:14:41;;;;;;;12.60;7.87;;;;;;;;;;4404499;32;20134;-76
2021/01/04 07:17:27;;;;;;;14.87;7.90;;;;;;;;;;4405583;32;20150;-76
2021/01/04 07:20:29;;;;;;;14.50;7.63;;;;;;;;;;4405273;32;20143;-76
2021/01/04 07:23:03;;;;;;;12.37;7.30;;;;;;;;;;4391120;32;20227;-77
2021/01/04 07:26:09;;;;;;;13.10;7.27;;;;;;;;;;4405445;32;20193;-77
2021/01/04 07:28:41;;;;;;;13.03;7.37;;;;;;;;;;4405081;32;20188;-76
2021/01/04 07:31:18;;;;;;;15.30;7.33;;;;;;;;;;4391590;32;20233;-76
2021/01/04 07:33:50;;;;;;;16.43;8.60;;;;;;;;;;4391549;32;20525;-75
2021/01/04 07:36:22;;;;;;;12.97;6.80;;;;;;;;;;4405487;32;20164;-75
2021/01/04 07:39:07;;;;;;;13.70;7.47;;;;;;;;;;4405436;32;20164;-76
2021/01/04 07:41:41;;;;;;;11.97;7.20;;;;;;;;;;4405394;32;20190;-76
2021/01/04 07:44:24;;;;;;;13.07;7.53;;;;;;;;;;4406090;32;20142;-76
2021/01/04 07:46:59;;;;;;;10.80;6.47;;;;;;;;;;4406055;32;20137;-76
2021/01/04 07:49:46;;;;;;;12.43;6.83;;;;;;;;;;4402401;32;20561;-75
2021/01/04 07:52:24;;;;;;;13.13;7.53;;;;;;;;;;4391043;32;20200;-76
2021/01/04 07:55:08;;;;;;;13.90;7.20;;;;;;;;;;4403543;32;20227;-76
2021/01/04 07:57:53;;;;;;;11.10;6.37;;;;;;;;;;4390913;32;20196;-76
2021/01/04 08:00:36;;;;;;;13.57;7.23;;;;;;;;;;4405480;32;20153;-78
2021/01/04 08:03:37;;;;;;;12.00;6.90;;;;;;;;;;4405325;32;20145;-78
2021/01/04 08:06:26;;;;;;;13.87;6.73;;;;;;;;;;4405327;32;20125;-77
2021/01/04 08:09:07;;;;;;;10.77;6.90;;;;;;;;;;4404862;32;20146;-77
2021/01/04 08:11:51;;;;;;;12.60;7.07;;;;;;;;;;4405411;32;20524;-78
2021/01/04 08:14:49;;;;;;;15.13;7.13;;;;;;;;;;4391165;32;20213;-77
2021/01/04 08:17:31;;;;;;;10.93;6.60;;;;;;;;;;4391139;32;20173;-77
2021/01/04 08:20:00;;;;;;;12.50;6.87;;;;;;;;;;4406364;32;20187;-77
2021/01/04 08:22:44;;;;;;;23.53;8.23;;;;;;;;;;4407838;32;20143;-77
2021/01/04 08:25:16;;;;;;;12.87;7.83;;;;;;;;;;4408207;32;20151;-76
2021/01/04 08:27:41;;;;;;;12.47;7.30;;;;;;;;;;4407888;32;20196;-76
2021/01/04 08:30:45;;;;;;;;;;;;;;;;;;;;;
2021/01/04 08:33:37;;;;;;;13.10;7.57;;;;;;;;;;4357234;32;20192;-76
2021/01/04 08:36:14;;;;;;;13.40;7.63;;;;;;;;;;4402921;32;20161;-76
2021/01/04 08:38:54;;;;;;;15.70;7.80;;;;;;;;;;4417147;32;20232;-76
2021/01/04 08:41:22;;;;;;;17.07;7.50;;;;;;;;;;4422645;32;20547;-76
2021/01/04 08:43:50;;;;;;;16.87;7.50;;;;;;;;;;4423043;32;20153;-76
2021/01/04 08:46:23;;;;;;;15.87;7.83;;;;;;;;;;4408291;32;20218;-76
2021/01/04 08:48:50;;;;;;;14.10;7.77;;;;;;;;;;4422526;32;20222;-76
2021/01/04 08:51:37;;;;;;;17.80;8.40;;;;;;;;;;4420153;32;20145;-76
2021/01/04 08:54:17;;;;;;;14.30;7.97;;;;;;;;;;4422222;32;20180;-76
2021/01/04 08:57:06;;;;;;;17.60;8.10;;;;;;;;;;4409474;32;20184;-76
2021/01/04 08:59:53;;;;;;;12.87;7.20;;;;;;;;;;4422185;32;20134;-76
2021/01/04 09:02:42;;;;;;;18.20;8.57;;;;;;;;;;4422361;32;20187;-76
2021/01/04 09:05:09;;;;;;;13.83;7.50;;;;;;;;;;4407267;32;20188;-76
2021/01/04 09:07:46;;;;;;;15.23;8.03;;;;;;;;;;4395742;32;20162;-76
2021/01/04 09:10:23;;;;;;;11.60;7.17;;;;;;;;;;4407684;32;20172;-76
2021/01/04 09:12:52;;;;;;;15.87;8.43;;;;;;;;;;4408194;32;20153;-77
2021/01/04 09:15:23;;;;;;;21.30;8.90;;;;;;;;;;4421818;32;20488;-77
2021/01/04 09:17:50;;;;;;;13.23;7.60;;;;;;;;;;4421905;32;20183;-75
2021/01/04 09:20:17;;;;;;;15.57;8.27;;;;;;;;;;4422378;32;20138;-75
2021/01/04 09:22:43;;;;;;;15.40;8.33;;;;;;;;;;4422089;32;20197;-74
2021/01/04 09:25:22;;;;;;;15.77;7.33;;;;;;;;;;4422449;32;20591;-74
2021/01/04 09:27:48;;;;;;;15.90;7.70;;;;;;;;;;4422248;32;20130;-74
2021/01/04 09:30:18;;;;;;;14.90;8.13;;;;;;;;;;4422685;32;20149;-74
2021/01/04 09:32:46;;;;;;;13.73;7.80;;;;;;;;;;4407064;32;20218;-75
2021/01/04 09:35:19;;;;;;;15.80;7.30;;;;;;;;;;4421871;32;20546;-74
2021/01/04 09:37:45;;;;;;;11.80;7.07;;;;;;;;;;4422100;32;20134;-74
2021/01/04 09:40:15;;;;;;;11.17;6.67;;;;;;;;;;4408353;32;20675;-75
2021/01/04 09:42:41;;;;;;;13.60;7.50;;;;;;;;;;4420029;32;20145;-74
2021/01/04 09:45:08;;;;;;;12.43;7.20;;;;;;;;;;4418437;32;20195;-75
2021/01/04 09:47:38;;;;;;;12.70;6.47;;;;;;;;;;4422024;32;20160;-74
2021/01/04 09:50:13;;;;;;;12.90;6.83;;;;;;;;;;4421528;32;20165;-74
2021/01/04 09:52:43;;;;;;;12.07;6.80;;;;;;;;;;4421975;32;20163;-74
2021/01/04 09:55:09;;;;;;;12.67;6.57;;;;;;;;;;4421421;32;20154;-73
2021/01/04 09:57:36;;;;;;;10.63;6.17;;;;;;;;;;4420922;32;20146;-74
2021/01/04 10:00:10;;;;;;;10.10;5.97;;;;;;;;;;4421669;32;20130;-74
2021/01/04 10:02:36;;;;;;;10.67;6.03;;;;;;;;;;4407498;32;20218;-74
2021/01/04 10:05:07;;;;;;;9.00;6.00;;;;;;;;;;4421270;32;20505;-74
2021/01/04 10:07:33;;;;;;;9.30;6.07;;;;;;;;;;4421782;32;20134;-74
2021/01/04 10:09:58;;;;;;;11.80;6.50;;;;;;;;;;4421121;32;20158;-74
2021/01/04 10:12:27;;;;;;;9.83;6.07;;;;;;;;;;4421083;32;20133;-75
2021/01/04 10:14:53;;;;;;;10.50;6.37;;;;;;;;;;4421808;32;20591;-75
2021/01/04 10:17:21;;;;;;;14.73;6.40;;;;;;;;;;4420910;32;20130;-75
2021/01/04 10:19:53;;;;;;;12.17;6.10;;;;;;;;;;4420974;32;20613;-74
2021/01/04 10:22:34;;;;;;;11.97;6.53;;;;;;;;;;4421474;32;20195;-74
2021/01/04 10:25:08;;;;;;;8.87;5.33;;;;;;;;;;4421314;32;20198;-75
2021/01/04 10:27:33;;;;;;;9.40;5.60;;;;;;;;;;4421140;32;20543;-75
2021/01/04 10:30:00;;;;;;;12.17;5.47;;;;;;;;;;4421004;32;20201;-75
2021/01/04 10:32:27;;;;;;;10.47;6.17;;;;;;;;;;4421350;32;20207;-75
2021/01/04 10:34:58;;;;;;;10.70;5.73;;;;;;;;;;4421280;32;20199;-75
2021/01/04 10:37:40;;;;;;;8.93;5.40;;;;;;;;;;4420154;32;20177;-75
2021/01/04 10:40:10;;;;;;;11.03;5.47;;;;;;;;;;4417682;32;20145;-75
2021/01/04 10:42:37;;;;;;;8.87;5.33;;;;;;;;;;4420671;32;20141;-75
2021/01/04 10:45:15;;;;;;;13.10;5.83;;;;;;;;;;4421284;32;20404;-75
2021/01/04 10:47:43;;;;;;;10.27;6.30;;;;;;;;;;4420989;32;20272;-74
2021/01/04 10:50:14;;;;;;;13.03;6.30;;;;;;;;;;4420952;32;20571;-74
2021/01/04 10:52:39;;;;;;;13.10;5.30;;;;;;;;;;4420618;32;20161;-74
2021/01/04 10:55:18;;;;;;;9.93;5.27;;;;;;;;;;4420378;32;20184;-74
2021/01/04 10:57:45;;;;;;;11.47;5.23;;;;;;;;;;4414464;32;20173;-74
2021/01/04 11:00:16;;;;;;;12.30;5.43;;;;;;;;;;4415789;32;20172;-74
2021/01/04 11:02:42;;;;;;;9.60;5.50;;;;;;;;;;4409780;32;20149;-74
2021/01/04 11:05:11;;;;;;;8.77;4.83;;;;;;;;;;4419659;32;20209;-74
2021/01/04 11:07:39;;;;;;;10.13;4.97;;;;;;;;;;4419421;32;20547;-74
2021/01/04 11:10:10;;;;;;;8.43;4.63;;;;;;;;;;4420602;32;20201;-74
2021/01/04 11:12:44;;;;;;;8.67;4.93;;;;;;;;;;4420302;32;20141;-75
2021/01/04 11:15:09;;;;;;;11.30;5.40;;;;;;;;;;4392624;32;20167;-75
2021/01/04 11:17:35;;;;;;;10.33;5.40;;;;;;;;;;4393135;32;20618;-75
2021/01/04 11:20:10;;;;;;;7.73;4.87;;;;;;;;;;4409940;32;20195;-74
2021/01/04 11:22:35;;;;;;;9.07;4.93;;;;;;;;;;4406250;32;20203;-74
2021/01/04 11:25:04;;;;;;;7.73;5.00;;;;;;;;;;4405163;32;20158;-74
2021/01/04 11:27:32;;;;;;;7.43;4.37;;;;;;;;;;4412433;32;20154;-74
2021/01/04 11:29:57;;;;;;;7.80;4.67;;;;;;;;;;4420109;32;20149;-74
2021/01/04 11:32:23;;;;;;;8.00;4.70;;;;;;;;;;4399704;32;20207;-75
2021/01/04 11:34:50;;;;;;;7.63;4.50;;;;;;;;;;4404880;32;20158;-75
2021/01/04 11:37:16;;;;;;;8.00;5.27;;;;;;;;;;4390910;32;20161;-75
2021/01/04 11:39:41;;;;;;;6.90;4.07;;;;;;;;;;4405786;32;20133;-75
2021/01/04 11:42:07;;;;;;;5.93;4.20;;;;;;;;;;4397079;32;20233;-75
2021/01/04 11:44:32;;;;;;;5.63;4.10;;;;;;;;;;4419412;32;20505;-76
2021/01/04 11:47:01;;;;;;;7.07;4.60;;;;;;;;;;4405784;32;20157;-75
2021/01/04 11:49:27;;;;;;;7.37;4.30;;;;;;;;;;4419299;32;20204;-74
2021/01/04 11:51:52;;;;;;;8.13;3.90;;;;;;;;;;4419377;32;20527;-75
2021/01/04 11:54:18;;;;;;;8.60;4.00;;;;;;;;;;4405697;32;20217;-75
2021/01/04 11:56:43;;;;;;;8.57;3.90;;;;;;;;;;4423071;32;20134;-75
2021/01/04 11:59:09;;;;;;;6.23;3.80;;;;;;;;;;4408990;32;20161;-75
2021/01/04 12:01:35;;;;;;;5.27;3.90;;;;;;;;;;4408554;32;20170;-75
2021/01/04 12:04:04;;;;;;;7.30;4.00;;;;;;;;;;4411489;32;20274;-75
2021/01/04 12:06:35;;;;;;;7.53;3.57;;;;;;;;;;4409133;32;20192;-75
2021/01/04 12:09:03;;;;;;;5.60;3.60;;;;;;;;;;4408780;32;20181;-75
2021/01/04 12:11:46;;;;;;;6.77;3.97;;;;;;;;;;4421463;32;20199;-75
2021/01/04 12:14:11;;;;;;;6.60;4.50;;;;;;;;;;4422249;32;20226;-75
2021/01/04 12:16:37;;;;;;;6.07;4.30;;;;;;;;;;4422378;32;20572;-75
2021/01/04 12:19:03;;;;;;;8.50;4.13;;;;;;;;;;4414990;32;20177;-74
2021/01/04 12:21:29;;;;;;;6.27;4.20;;;;;;;;;;4408851;32;20203;-75
2021/01/04 12:23:54;;;;;;;6.47;4.17;;;;;;;;;;4420497;32;20149;-74
2021/01/04 12:26:27;;;;;;;6.60;4.43;;;;;;;;;;4422093;32;20181;-74
2021/01/04 12:28:55;;;;;;;7.30;3.87;;;;;;;;;;4412180;32;20216;-74
2021/01/04 12:31:21;;;;;;;7.07;4.40;;;;;;;;;;4407635;32;20153;-74
2021/01/04 12:33:46;;;;;;;8.53;4.60;;;;;;;;;;4423199;32;20504;-77
2021/01/04 12:36:16;;;;;;;5.33;3.70;;;;;;;;;;4422302;32;20183;-74
2021/01/04 12:38:41;;;;;;;5.97;4.23;;;;;;;;;;4422319;32;20204;-74
2021/01/04 12:41:06;;;;;;;6.63;4.10;;;;;;;;;;4422238;32;20145;-75
2021/01/04 12:43:52;;;;;;;5.87;4.03;;;;;;;;;;4422118;32;20168;-74
2021/01/04 12:46:20;;;;;;;7.00;3.60;;;;;;;;;;4420162;32;20166;-74
2021/01/04 12:48:46;;;;;;;6.30;3.60;;;;;;;;;;4406872;32;20172;-74
2021/01/04 12:51:19;;;;;;;7.40;3.70;;;;;;;;;;4407289;32;20130;-74
2021/01/04 12:53:44;;;;;;;6.27;3.73;;;;;;;;;;4407404;32;20131;-74
2021/01/04 12:56:10;;;;;;;6.63;3.70;;;;;;;;;;4403987;32;20213;-74
2021/01/04 12:58:39;;;;;;;6.33;3.50;;;;;;;;;;4407070;32;20194;-74
2021/01/04 13:01:05;;;;;;;4.33;3.13;;;;;;;;;;4407107;32;20145;-75
2021/01/04 13:03:33;;;;;;;6.37;3.80;;;;;;;;;;4407575;32;20665;-74
2021/01/04 13:05:58;;;;;;;6.50;3.60;;;;;;;;;;4433056;32;20141;-75
2021/01/04 13:08:24;;;;;;;5.67;2.87;;;;;;;;;;4427622;32;20157;-75
2021/01/04 13:10:49;;;;;;;3.93;2.90;;;;;;;;;;4407870;32;20184;-75
2021/01/04 13:13:17;;;;;;;5.93;3.10;;;;;;;;;;4421582;32;20205;-75
2021/01/04 13:15:42;;;;;;;5.83;3.17;;;;;;;;;;4421021;32;20146;-75
2021/01/04 13:18:07;;;;;;;4.60;3.10;;;;;;;;;;4421343;32;20150;-75
2021/01/04 13:20:33;;;;;;;6.93;3.67;;;;;;;;;;4421426;32;20137;-75
2021/01/04 13:23:04;;;;;;;4.77;3.17;;;;;;;;;;4421408;32;20176;-75
2021/01/04 13:25:32;;;;;;;5.33;3.37;;;;;;;;;;4421268;32;20141;-74
2021/01/04 13:28:01;;;;;;;6.13;3.33;;;;;;;;;;4416964;32;20154;-75
2021/01/04 13:30:27;;;;;;;6.40;3.50;;;;;;;;;;4421509;32;20160;-75
2021/01/04 13:33:01;;;;;;;7.13;3.40;;;;;;;;;;4436858;32;20133;-76
2021/01/04 13:35:26;;;;;;;6.60;3.20;;;;;;;;;;4436842;32;20132;-75
2021/01/04 13:37:54;;;;;;;6.53;3.07;;;;;;;;;;4426975;32;20488;-75
2021/01/04 13:40:31;;;;;;;5.97;3.40;;;;;;;;;;4415714;32;20149;-75
2021/01/04 13:42:56;;;;;;;4.50;2.73;;;;;;;;;;4406840;32;20582;-75
2021/01/04 13:45:24;;;;;;;4.70;3.17;;;;;;;;;;4392135;32;20166;-75
2021/01/04 13:47:49;;;;;;;3.90;2.93;;;;;;;;;;4401309;32;20165;-75
2021/01/04 13:50:15;;;;;;;5.93;3.30;;;;;;;;;;4421204;32;20199;-75
2021/01/04 13:52:54;;;;;;;4.53;3.00;;;;;;;;;;4407241;32;20228;-75
2021/01/04 13:55:27;;;;;;;4.83;3.17;;;;;;;;;;4421150;32;20208;-75
2021/01/04 13:57:55;;;;;;;6.20;3.13;;;;;;;;;;4421587;32;20138;-75
2021/01/04 14:00:24;;;;;;;4.10;2.60;;;;;;;;;;4421342;32;20626;-76
2021/01/04 14:02:56;;;;;;;6.23;2.80;;;;;;;;;;4421065;32;20142;-75
2021/01/04 14:05:21;;;;;;;4.17;2.70;;;;;;;;;;4427897;32;20280;-75
2021/01/04 14:07:55;;;;;;;4.80;2.70;;;;;;;;;;4420551;32;20145;-76
2021/01/04 14:10:22;;;;;;;3.33;2.67;;;;;;;;;;4407321;32;20227;-75
2021/01/04 14:12:49;;;;;;;3.87;2.90;;;;;;;;;;4420061;32;20586;-75
2021/01/04 14:15:14;;;;;;;4.83;2.87;;;;;;;;;;4422225;32;20183;-75
2021/01/04 14:17:39;;;;;;;3.40;2.30;;;;;;;;;;4419364;32;20177;-75
2021/01/04 14:20:05;;;;;;;4.63;2.70;;;;;;;;;;4415607;32;20141;-75
2021/01/04 14:22:30;;;;;;;3.63;2.60;;;;;;;;;;4421129;32;20641;-75
2021/01/04 14:24:55;;;;;;;6.53;2.83;;;;;;;;;;4420252;32;20248;-76
2021/01/04 14:27:21;;;;;;;4.37;3.03;;;;;;;;;;4421544;32;20153;-76
2021/01/04 14:29:46;;;;;;;4.20;2.70;;;;;;;;;;4436148;32;20209;-76
2021/01/04 14:32:12;;;;;;;62.63;22.43;;;;;;;;;;4430502;32;20146;-76
2021/01/04 14:34:41;;;;;;;4.60;2.70;;;;;;;;;;4419313;32;20191;-76
2021/01/04 14:37:06;;;;;;;3.60;2.60;;;;;;;;;;4407148;32;20659;-76
2021/01/04 14:39:31;;;;;;;6.93;2.80;;;;;;;;;;4405844;32;20170;-76
2021/01/04 14:42:01;;;;;;;3.67;2.37;;;;;;;;;;4420915;32;20183;-75
2021/01/04 14:44:40;;;;;;;6.93;2.90;;;;;;;;;;4420451;32;20167;-75
2021/01/04 14:47:06;;;;;;;5.50;2.73;;;;;;;;;;4407854;32;20134;-75
2021/01/04 14:49:32;;;;;;;4.43;2.93;;;;;;;;;;4420645;32;20213;-75
2021/01/04 14:51:57;;;;;;;4.03;2.77;;;;;;;;;;4420638;32;20191;-75
2021/01/04 14:54:25;;;;;;;3.43;2.30;;;;;;;;;;4381780;32;20260;-76
2021/01/04 14:56:50;;;;;;;5.93;2.73;;;;;;;;;;4414947;32;20218;-75
2021/01/04 14:59:21;;;;;;;2.97;2.27;;;;;;;;;;4419998;32;20142;-75
2021/01/04 15:01:49;;;;;;;3.97;2.57;;;;;;;;;;4418931;32;20161;-77
2021/01/04 15:04:17;;;;;;;5.03;2.67;;;;;;;;;;4418597;32;20157;-74
2021/01/04 15:06:51;;;;;;;5.07;2.70;;;;;;;;;;4394317;32;20170;-76